sensor_id;sensor_type;location;lat;lon;timestamp;P1;durP1;ratioP1;P2;durP2;ratioP2
19358;SDS011;9815;52.334;20.890;2022-10-16T00:00:58;22.57;;;12.47;;
19358;SDS011;9815;52.334;20.890;2022-10-16T00:03:32;21.43;;;11.87;;
19358;SDS011;9815;52.334;20.890;2022-10-16T00:06:01;22.93;;;12.03;;
19358;SDS011;9815;52.334;20.890;2022-10-16T00:08:30;22.33;;;12.10;;
19358;SDS011;9815;52.334;20.890;2022-10-16T00:11:00;21.87;;;11.93;;
19358;SDS011;9815;52.334;20.890;2022-10-16T00:13:30;22.00;;;12.20;;
19358;SDS011;9815;52.334;20.890;2022-10-16T00:15:59;24.20;;;11.53;;
19358;SDS011;9815;52.334;20.890;2022-10-16T00:18:28;20.47;;;11.77;;
19358;SDS011;9815;52.334;20.890;2022-10-16T00:21:01;21.10;;;11.63;;
19358;SDS011;9815;52.334;20.890;2022-10-16T00:23:30;20.70;;;10.97;;
19358;SDS011;9815;52.334;20.890;2022-10-16T00:26:00;21.23;;;11.03;;
19358;SDS011;9815;52.334;20.890;2022-10-16T00:28:30;21.47;;;10.70;;
19358;SDS011;9815;52.334;20.890;2022-10-16T00:31:01;19.03;;;11.03;;
19358;SDS011;9815;52.334;20.890;2022-10-16T00:33:30;22.43;;;11.07;;
19358;SDS011;9815;52.334;20.890;2022-10-16T00:35:58;25.43;;;11.77;;
19358;SDS011;9815;52.334;20.890;2022-10-16T00:38:27;26.20;;;12.43;;
19358;SDS011;9815;52.334;20.890;2022-10-16T00:40:55;21.73;;;11.80;;
19358;SDS011;9815;52.334;20.890;2022-10-16T00:43:36;24.03;;;11.40;;
19358;SDS011;9815;52.334;20.890;2022-10-16T00:46:09;20.00;;;10.40;;
19358;SDS011;9815;52.334;20.890;2022-10-16T00:48:41;20.73;;;9.83;;
19358;SDS011;9815;52.334;20.890;2022-10-16T00:51:14;17.83;;;10.97;;
19358;SDS011;9815;52.334;20.890;2022-10-16T00:53:42;19.63;;;9.47;;
19358;SDS011;9815;52.334;20.890;2022-10-16T00:56:11;20.33;;;10.23;;
19358;SDS011;9815;52.334;20.890;2022-10-16T00:58:40;17.77;;;10.20;;
19358;SDS011;9815;52.334;20.890;2022-10-16T01:01:08;18.83;;;10.20;;
19358;SDS011;9815;52.334;20.890;2022-10-16T01:03:37;16.97;;;9.20;;
19358;SDS011;9815;52.334;20.890;2022-10-16T01:06:09;15.13;;;9.00;;
19358;SDS011;9815;52.334;20.890;2022-10-16T01:08:57;18.23;;;9.40;;
19358;SDS011;9815;52.334;20.890;2022-10-16T01:11:36;15.37;;;9.23;;
19358;SDS011;9815;52.334;20.890;2022-10-16T01:14:14;22.17;;;8.93;;
19358;SDS011;9815;52.334;20.890;2022-10-16T01:16:52;16.67;;;8.53;;
19358;SDS011;9815;52.334;20.890;2022-10-16T01:19:26;19.27;;;8.90;;
19358;SDS011;9815;52.334;20.890;2022-10-16T01:22:15;14.23;;;8.73;;
19358;SDS011;9815;52.334;20.890;2022-10-16T01:24:44;21.33;;;9.40;;
19358;SDS011;9815;52.334;20.890;2022-10-16T01:27:17;16.93;;;9.17;;
19358;SDS011;9815;52.334;20.890;2022-10-16T01:29:51;16.63;;;9.50;;
19358;SDS011;9815;52.334;20.890;2022-10-16T01:32:23;17.27;;;9.27;;
19358;SDS011;9815;52.334;20.890;2022-10-16T01:34:58;16.87;;;9.00;;
19358;SDS011;9815;52.334;20.890;2022-10-16T01:37:32;13.57;;;8.50;;
19358;SDS011;9815;52.334;20.890;2022-10-16T01:40:05;20.50;;;9.07;;
19358;SDS011;9815;52.334;20.890;2022-10-16T01:42:38;21.97;;;8.90;;
19358;SDS011;9815;52.334;20.890;2022-10-16T01:45:09;17.83;;;9.30;;
19358;SDS011;9815;52.334;20.890;2022-10-16T01:47:40;14.90;;;8.93;;
19358;SDS011;9815;52.334;20.890;2022-10-16T01:50:10;17.53;;;9.50;;
19358;SDS011;9815;52.334;20.890;2022-10-16T01:52:42;15.00;;;9.53;;
19358;SDS011;9815;52.334;20.890;2022-10-16T01:55:13;17.37;;;9.17;;
19358;SDS011;9815;52.334;20.890;2022-10-16T01:57:46;17.37;;;9.67;;
19358;SDS011;9815;52.334;20.890;2022-10-16T02:00:17;20.67;;;9.57;;
19358;SDS011;9815;52.334;20.890;2022-10-16T02:02:48;18.97;;;9.90;;
19358;SDS011;9815;52.334;20.890;2022-10-16T02:05:20;23.57;;;9.20;;
19358;SDS011;9815;52.334;20.890;2022-10-16T02:07:53;22.00;;;9.90;;
19358;SDS011;9815;52.334;20.890;2022-10-16T02:10:24;16.97;;;9.23;;
19358;SDS011;9815;52.334;20.890;2022-10-16T02:12:59;17.30;;;10.20;;
19358;SDS011;9815;52.334;20.890;2022-10-16T02:15:31;16.00;;;9.67;;
19358;SDS011;9815;52.334;20.890;2022-10-16T02:17:59;17.13;;;9.47;;
19358;SDS011;9815;52.334;20.890;2022-10-16T02:20:28;20.03;;;10.27;;
19358;SDS011;9815;52.334;20.890;2022-10-16T02:22:59;19.67;;;9.93;;
19358;SDS011;9815;52.334;20.890;2022-10-16T02:25:30;19.37;;;9.93;;
19358;SDS011;9815;52.334;20.890;2022-10-16T02:28:04;21.07;;;10.43;;
19358;SDS011;9815;52.334;20.890;2022-10-16T02:30:37;19.10;;;10.33;;
19358;SDS011;9815;52.334;20.890;2022-10-16T02:33:10;20.90;;;10.63;;
19358;SDS011;9815;52.334;20.890;2022-10-16T02:35:40;21.80;;;10.87;;
19358;SDS011;9815;52.334;20.890;2022-10-16T02:38:10;18.10;;;9.90;;
19358;SDS011;9815;52.334;20.890;2022-10-16T02:40:40;16.93;;;9.80;;
19358;SDS011;9815;52.334;20.890;2022-10-16T02:43:10;17.87;;;10.00;;
19358;SDS011;9815;52.334;20.890;2022-10-16T02:45:38;16.93;;;10.07;;
19358;SDS011;9815;52.334;20.890;2022-10-16T02:48:07;20.70;;;10.67;;
19358;SDS011;9815;52.334;20.890;2022-10-16T02:50:35;19.77;;;10.50;;
19358;SDS011;9815;52.334;20.890;2022-10-16T02:53:03;16.20;;;9.70;;
19358;SDS011;9815;52.334;20.890;2022-10-16T02:55:31;18.27;;;10.67;;
19358;SDS011;9815;52.334;20.890;2022-10-16T02:57:59;17.10;;;10.53;;
19358;SDS011;9815;52.334;20.890;2022-10-16T03:00:28;19.70;;;11.07;;
19358;SDS011;9815;52.334;20.890;2022-10-16T03:02:57;22.20;;;11.63;;
19358;SDS011;9815;52.334;20.890;2022-10-16T03:05:25;20.93;;;11.57;;
19358;SDS011;9815;52.334;20.890;2022-10-16T03:07:53;23.87;;;11.83;;
19358;SDS011;9815;52.334;20.890;2022-10-16T03:10:21;19.07;;;11.07;;
19358;SDS011;9815;52.334;20.890;2022-10-16T03:12:49;22.77;;;11.63;;
19358;SDS011;9815;52.334;20.890;2022-10-16T03:15:18;23.67;;;11.57;;
19358;SDS011;9815;52.334;20.890;2022-10-16T03:17:47;23.83;;;12.47;;
19358;SDS011;9815;52.334;20.890;2022-10-16T03:20:15;23.20;;;12.83;;
19358;SDS011;9815;52.334;20.890;2022-10-16T03:22:43;22.77;;;11.40;;
19358;SDS011;9815;52.334;20.890;2022-10-16T03:25:11;21.87;;;11.70;;
19358;SDS011;9815;52.334;20.890;2022-10-16T03:27:40;23.03;;;11.70;;
19358;SDS011;9815;52.334;20.890;2022-10-16T03:30:08;19.67;;;11.90;;
19358;SDS011;9815;52.334;20.890;2022-10-16T03:32:37;21.00;;;11.83;;
19358;SDS011;9815;52.334;20.890;2022-10-16T03:35:07;23.10;;;11.80;;
19358;SDS011;9815;52.334;20.890;2022-10-16T03:37:35;26.97;;;11.87;;
19358;SDS011;9815;52.334;20.890;2022-10-16T03:40:04;20.17;;;11.13;;
19358;SDS011;9815;52.334;20.890;2022-10-16T03:42:33;23.03;;;12.27;;
19358;SDS011;9815;52.334;20.890;2022-10-16T03:45:01;23.87;;;12.00;;
19358;SDS011;9815;52.334;20.890;2022-10-16T03:47:29;23.87;;;11.83;;
19358;SDS011;9815;52.334;20.890;2022-10-16T03:49:59;20.87;;;11.73;;
19358;SDS011;9815;52.334;20.890;2022-10-16T03:52:29;21.40;;;11.77;;
19358;SDS011;9815;52.334;20.890;2022-10-16T03:54:58;22.53;;;11.63;;
19358;SDS011;9815;52.334;20.890;2022-10-16T03:57:26;22.63;;;12.00;;
19358;SDS011;9815;52.334;20.890;2022-10-16T03:59:55;23.23;;;12.73;;
19358;SDS011;9815;52.334;20.890;2022-10-16T04:02:23;26.43;;;13.40;;
19358;SDS011;9815;52.334;20.890;2022-10-16T04:04:51;24.53;;;12.77;;
19358;SDS011;9815;52.334;20.890;2022-10-16T04:07:19;23.20;;;12.27;;
19358;SDS011;9815;52.334;20.890;2022-10-16T04:09:49;24.23;;;13.20;;
19358;SDS011;9815;52.334;20.890;2022-10-16T04:12:18;24.47;;;13.40;;
19358;SDS011;9815;52.334;20.890;2022-10-16T04:14:46;21.73;;;12.33;;
19358;SDS011;9815;52.334;20.890;2022-10-16T04:17:14;26.87;;;13.77;;
19358;SDS011;9815;52.334;20.890;2022-10-16T04:19:43;26.60;;;12.80;;
19358;SDS011;9815;52.334;20.890;2022-10-16T04:22:11;22.60;;;13.10;;
19358;SDS011;9815;52.334;20.890;2022-10-16T04:24:39;25.17;;;13.07;;
19358;SDS011;9815;52.334;20.890;2022-10-16T04:27:09;25.80;;;13.33;;
19358;SDS011;9815;52.334;20.890;2022-10-16T04:29:37;24.63;;;14.07;;
19358;SDS011;9815;52.334;20.890;2022-10-16T04:32:05;25.80;;;12.50;;
19358;SDS011;9815;52.334;20.890;2022-10-16T04:34:35;25.77;;;12.57;;
19358;SDS011;9815;52.334;20.890;2022-10-16T04:37:05;24.07;;;12.90;;
19358;SDS011;9815;52.334;20.890;2022-10-16T04:39:33;26.10;;;13.53;;
19358;SDS011;9815;52.334;20.890;2022-10-16T04:42:01;27.10;;;13.30;;
19358;SDS011;9815;52.334;20.890;2022-10-16T04:44:31;25.57;;;13.57;;
19358;SDS011;9815;52.334;20.890;2022-10-16T04:46:59;27.27;;;13.63;;
19358;SDS011;9815;52.334;20.890;2022-10-16T04:49:27;24.90;;;14.00;;
19358;SDS011;9815;52.334;20.890;2022-10-16T04:51:55;27.03;;;13.43;;
19358;SDS011;9815;52.334;20.890;2022-10-16T04:54:23;26.17;;;13.33;;
19358;SDS011;9815;52.334;20.890;2022-10-16T04:56:51;23.80;;;12.70;;
19358;SDS011;9815;52.334;20.890;2022-10-16T04:59:20;29.23;;;16.33;;
19358;SDS011;9815;52.334;20.890;2022-10-16T05:01:50;28.00;;;15.00;;
19358;SDS011;9815;52.334;20.890;2022-10-16T05:04:18;27.83;;;14.80;;
19358;SDS011;9815;52.334;20.890;2022-10-16T05:06:47;33.67;;;15.67;;
19358;SDS011;9815;52.334;20.890;2022-10-16T05:09:15;29.33;;;15.10;;
19358;SDS011;9815;52.334;20.890;2022-10-16T05:11:43;29.90;;;15.30;;
19358;SDS011;9815;52.334;20.890;2022-10-16T05:14:11;30.30;;;14.83;;
19358;SDS011;9815;52.334;20.890;2022-10-16T05:16:40;24.37;;;13.73;;
19358;SDS011;9815;52.334;20.890;2022-10-16T05:19:09;26.50;;;14.47;;
19358;SDS011;9815;52.334;20.890;2022-10-16T05:21:54;27.87;;;13.90;;
19358;SDS011;9815;52.334;20.890;2022-10-16T05:24:22;35.70;;;14.90;;
19358;SDS011;9815;52.334;20.890;2022-10-16T05:26:50;28.97;;;14.40;;
19358;SDS011;9815;52.334;20.890;2022-10-16T05:29:19;27.60;;;14.17;;
19358;SDS011;9815;52.334;20.890;2022-10-16T05:31:49;25.97;;;14.30;;
19358;SDS011;9815;52.334;20.890;2022-10-16T05:34:20;25.23;;;13.60;;
19358;SDS011;9815;52.334;20.890;2022-10-16T05:36:48;26.40;;;14.20;;
19358;SDS011;9815;52.334;20.890;2022-10-16T05:39:17;23.77;;;13.93;;
19358;SDS011;9815;52.334;20.890;2022-10-16T05:41:45;24.37;;;14.07;;
19358;SDS011;9815;52.334;20.890;2022-10-16T05:44:13;24.93;;;14.40;;
19358;SDS011;9815;52.334;20.890;2022-10-16T05:46:41;22.87;;;14.17;;
19358;SDS011;9815;52.334;20.890;2022-10-16T05:49:09;26.90;;;14.17;;
19358;SDS011;9815;52.334;20.890;2022-10-16T05:51:39;22.30;;;14.07;;
19358;SDS011;9815;52.334;20.890;2022-10-16T05:54:07;30.33;;;14.33;;
19358;SDS011;9815;52.334;20.890;2022-10-16T05:56:36;23.80;;;14.40;;
19358;SDS011;9815;52.334;20.890;2022-10-16T05:59:04;26.97;;;14.93;;
19358;SDS011;9815;52.334;20.890;2022-10-16T06:01:33;26.37;;;14.40;;
19358;SDS011;9815;52.334;20.890;2022-10-16T06:04:01;29.77;;;14.40;;
19358;SDS011;9815;52.334;20.890;2022-10-16T06:06:30;25.07;;;13.77;;
19358;SDS011;9815;52.334;20.890;2022-10-16T06:09:00;22.83;;;13.83;;
19358;SDS011;9815;52.334;20.890;2022-10-16T06:11:29;27.80;;;13.43;;
19358;SDS011;9815;52.334;20.890;2022-10-16T06:14:00;28.13;;;14.13;;
19358;SDS011;9815;52.334;20.890;2022-10-16T06:16:33;24.37;;;14.00;;
19358;SDS011;9815;52.334;20.890;2022-10-16T06:19:02;26.27;;;14.20;;
19358;SDS011;9815;52.334;20.890;2022-10-16T06:21:32;25.70;;;14.03;;
19358;SDS011;9815;52.334;20.890;2022-10-16T06:24:02;29.57;;;13.83;;
19358;SDS011;9815;52.334;20.890;2022-10-16T06:26:30;26.83;;;14.07;;
19358;SDS011;9815;52.334;20.890;2022-10-16T06:28:59;21.40;;;13.23;;
19358;SDS011;9815;52.334;20.890;2022-10-16T06:31:27;22.70;;;13.07;;
19358;SDS011;9815;52.334;20.890;2022-10-16T06:33:57;26.07;;;12.70;;
19358;SDS011;9815;52.334;20.890;2022-10-16T06:36:26;26.70;;;12.90;;
19358;SDS011;9815;52.334;20.890;2022-10-16T06:38:54;22.70;;;12.60;;
19358;SDS011;9815;52.334;20.890;2022-10-16T06:41:24;21.03;;;12.80;;
19358;SDS011;9815;52.334;20.890;2022-10-16T06:43:52;24.80;;;13.73;;
19358;SDS011;9815;52.334;20.890;2022-10-16T06:46:21;22.73;;;13.23;;
19358;SDS011;9815;52.334;20.890;2022-10-16T06:48:50;24.43;;;12.80;;
19358;SDS011;9815;52.334;20.890;2022-10-16T06:51:20;22.47;;;12.07;;
19358;SDS011;9815;52.334;20.890;2022-10-16T06:53:50;19.20;;;11.40;;
19358;SDS011;9815;52.334;20.890;2022-10-16T06:56:31;20.23;;;11.67;;
19358;SDS011;9815;52.334;20.890;2022-10-16T06:59:00;21.53;;;11.57;;
19358;SDS011;9815;52.334;20.890;2022-10-16T07:01:29;24.40;;;11.57;;
19358;SDS011;9815;52.334;20.890;2022-10-16T07:03:58;19.10;;;10.53;;
19358;SDS011;9815;52.334;20.890;2022-10-16T07:06:30;22.67;;;11.63;;
19358;SDS011;9815;52.334;20.890;2022-10-16T07:09:01;21.10;;;11.13;;
19358;SDS011;9815;52.334;20.890;2022-10-16T07:11:33;19.53;;;11.03;;
19358;SDS011;9815;52.334;20.890;2022-10-16T07:14:01;18.50;;;11.37;;
19358;SDS011;9815;52.334;20.890;2022-10-16T07:16:31;20.17;;;11.13;;
19358;SDS011;9815;52.334;20.890;2022-10-16T07:19:00;18.87;;;10.80;;
19358;SDS011;9815;52.334;20.890;2022-10-16T07:21:30;17.77;;;10.73;;
19358;SDS011;9815;52.334;20.890;2022-10-16T07:24:02;20.47;;;10.80;;
19358;SDS011;9815;52.334;20.890;2022-10-16T07:26:33;19.03;;;11.10;;
19358;SDS011;9815;52.334;20.890;2022-10-16T07:29:05;19.17;;;11.27;;
19358;SDS011;9815;52.334;20.890;2022-10-16T07:31:34;18.40;;;10.67;;
19358;SDS011;9815;52.334;20.890;2022-10-16T07:34:04;17.03;;;10.20;;
19358;SDS011;9815;52.334;20.890;2022-10-16T07:36:33;18.30;;;9.93;;
19358;SDS011;9815;52.334;20.890;2022-10-16T07:39:02;18.70;;;11.17;;
19358;SDS011;9815;52.334;20.890;2022-10-16T07:41:30;18.00;;;10.63;;
19358;SDS011;9815;52.334;20.890;2022-10-16T07:44:00;24.37;;;11.53;;
19358;SDS011;9815;52.334;20.890;2022-10-16T07:46:28;17.43;;;9.77;;
19358;SDS011;9815;52.334;20.890;2022-10-16T07:48:57;18.27;;;10.47;;
19358;SDS011;9815;52.334;20.890;2022-10-16T07:51:25;22.57;;;11.30;;
19358;SDS011;9815;52.334;20.890;2022-10-16T07:53:54;21.23;;;10.97;;
19358;SDS011;9815;52.334;20.890;2022-10-16T07:56:22;18.70;;;10.43;;
19358;SDS011;9815;52.334;20.890;2022-10-16T07:58:51;21.80;;;10.73;;
19358;SDS011;9815;52.334;20.890;2022-10-16T08:01:20;17.03;;;10.57;;
19358;SDS011;9815;52.334;20.890;2022-10-16T08:03:49;16.70;;;9.90;;
19358;SDS011;9815;52.334;20.890;2022-10-16T08:06:19;18.10;;;10.73;;
19358;SDS011;9815;52.334;20.890;2022-10-16T08:08:53;18.07;;;10.37;;
19358;SDS011;9815;52.334;20.890;2022-10-16T08:11:21;16.67;;;10.33;;
19358;SDS011;9815;52.334;20.890;2022-10-16T08:13:50;18.93;;;10.13;;
19358;SDS011;9815;52.334;20.890;2022-10-16T08:16:18;16.97;;;10.77;;
19358;SDS011;9815;52.334;20.890;2022-10-16T08:18:48;15.83;;;9.63;;
19358;SDS011;9815;52.334;20.890;2022-10-16T08:21:18;16.50;;;9.80;;
19358;SDS011;9815;52.334;20.890;2022-10-16T08:23:49;20.47;;;10.93;;
19358;SDS011;9815;52.334;20.890;2022-10-16T08:26:23;17.80;;;10.70;;
19358;SDS011;9815;52.334;20.890;2022-10-16T08:28:52;18.90;;;9.73;;
19358;SDS011;9815;52.334;20.890;2022-10-16T08:31:22;20.70;;;10.17;;
19358;SDS011;9815;52.334;20.890;2022-10-16T08:33:50;16.87;;;9.80;;
19358;SDS011;9815;52.334;20.890;2022-10-16T08:36:19;19.13;;;10.10;;
19358;SDS011;9815;52.334;20.890;2022-10-16T08:38:47;17.20;;;10.20;;
19358;SDS011;9815;52.334;20.890;2022-10-16T08:41:26;20.17;;;10.80;;
19358;SDS011;9815;52.334;20.890;2022-10-16T08:44:30;21.30;;;10.43;;
19358;SDS011;9815;52.334;20.890;2022-10-16T08:47:13;17.03;;;8.57;;
19358;SDS011;9815;52.334;20.890;2022-10-16T08:49:49;16.00;;;9.87;;
19358;SDS011;9815;52.334;20.890;2022-10-16T08:52:23;15.70;;;9.57;;
19358;SDS011;9815;52.334;20.890;2022-10-16T08:54:56;14.03;;;9.03;;
19358;SDS011;9815;52.334;20.890;2022-10-16T08:57:25;15.80;;;9.57;;
19358;SDS011;9815;52.334;20.890;2022-10-16T08:59:54;19.03;;;9.37;;
19358;SDS011;9815;52.334;20.890;2022-10-16T09:02:31;19.77;;;9.70;;
19358;SDS011;9815;52.334;20.890;2022-10-16T09:05:03;15.63;;;8.83;;
19358;SDS011;9815;52.334;20.890;2022-10-16T09:07:46;16.00;;;9.13;;
19358;SDS011;9815;52.334;20.890;2022-10-16T09:10:24;15.77;;;8.37;;
19358;SDS011;9815;52.334;20.890;2022-10-16T09:13:00;13.07;;;8.20;;
19358;SDS011;9815;52.334;20.890;2022-10-16T09:15:39;12.60;;;8.03;;
19358;SDS011;9815;52.334;20.890;2022-10-16T09:18:15;15.03;;;9.00;;
19358;SDS011;9815;52.334;20.890;2022-10-16T09:20:53;14.20;;;8.87;;
19358;SDS011;9815;52.334;20.890;2022-10-16T09:23:27;14.33;;;7.93;;
19358;SDS011;9815;52.334;20.890;2022-10-16T09:25:56;13.73;;;8.23;;
19358;SDS011;9815;52.334;20.890;2022-10-16T09:28:26;13.17;;;7.90;;
19358;SDS011;9815;52.334;20.890;2022-10-16T09:30:54;14.80;;;8.53;;
19358;SDS011;9815;52.334;20.890;2022-10-16T09:33:25;17.73;;;8.60;;
19358;SDS011;9815;52.334;20.890;2022-10-16T09:35:57;15.40;;;8.37;;
19358;SDS011;9815;52.334;20.890;2022-10-16T09:38:26;13.97;;;8.10;;
19358;SDS011;9815;52.334;20.890;2022-10-16T09:40:56;11.20;;;7.33;;
19358;SDS011;9815;52.334;20.890;2022-10-16T09:43:31;11.97;;;7.70;;
19358;SDS011;9815;52.334;20.890;2022-10-16T09:46:03;12.63;;;7.73;;
19358;SDS011;9815;52.334;20.890;2022-10-16T09:48:36;11.80;;;7.37;;
19358;SDS011;9815;52.334;20.890;2022-10-16T09:51:06;13.33;;;7.77;;
19358;SDS011;9815;52.334;20.890;2022-10-16T09:53:45;13.27;;;7.67;;
19358;SDS011;9815;52.334;20.890;2022-10-16T09:56:21;14.13;;;8.10;;
19358;SDS011;9815;52.334;20.890;2022-10-16T09:58:51;13.53;;;8.03;;
19358;SDS011;9815;52.334;20.890;2022-10-16T10:01:20;14.37;;;8.07;;
19358;SDS011;9815;52.334;20.890;2022-10-16T10:03:55;12.03;;;7.67;;
19358;SDS011;9815;52.334;20.890;2022-10-16T10:06:28;14.37;;;7.60;;
19358;SDS011;9815;52.334;20.890;2022-10-16T10:08:58;12.03;;;7.47;;
19358;SDS011;9815;52.334;20.890;2022-10-16T10:11:40;12.53;;;7.37;;
19358;SDS011;9815;52.334;20.890;2022-10-16T10:17:09;13.43;;;7.33;;
19358;SDS011;9815;52.334;20.890;2022-10-16T10:19:41;13.10;;;7.90;;
19358;SDS011;9815;52.334;20.890;2022-10-16T10:22:16;11.33;;;6.93;;
19358;SDS011;9815;52.334;20.890;2022-10-16T10:24:54;10.87;;;7.33;;
19358;SDS011;9815;52.334;20.890;2022-10-16T10:27:24;13.93;;;7.73;;
19358;SDS011;9815;52.334;20.890;2022-10-16T10:29:59;13.20;;;7.27;;
19358;SDS011;9815;52.334;20.890;2022-10-16T10:32:35;16.17;;;8.17;;
19358;SDS011;9815;52.334;20.890;2022-10-16T10:35:14;12.57;;;8.07;;
19358;SDS011;9815;52.334;20.890;2022-10-16T10:37:50;16.07;;;7.90;;
19358;SDS011;9815;52.334;20.890;2022-10-16T10:40:36;18.07;;;8.30;;
19358;SDS011;9815;52.334;20.890;2022-10-16T10:43:16;10.67;;;7.17;;
19358;SDS011;9815;52.334;20.890;2022-10-16T10:45:57;14.50;;;8.00;;
19358;SDS011;9815;52.334;20.890;2022-10-16T10:48:35;11.10;;;7.10;;
19358;SDS011;9815;52.334;20.890;2022-10-16T10:51:18;13.40;;;8.40;;
19358;SDS011;9815;52.334;20.890;2022-10-16T10:53:52;14.37;;;8.67;;
19358;SDS011;9815;52.334;20.890;2022-10-16T10:56:39;12.70;;;7.60;;
19358;SDS011;9815;52.334;20.890;2022-10-16T10:59:19;11.73;;;8.00;;
19358;SDS011;9815;52.334;20.890;2022-10-16T11:02:04;16.70;;;8.30;;
19358;SDS011;9815;52.334;20.890;2022-10-16T11:04:54;16.40;;;8.07;;
19358;SDS011;9815;52.334;20.890;2022-10-16T11:07:52;12.50;;;8.17;;
19358;SDS011;9815;52.334;20.890;2022-10-16T11:10:26;13.17;;;7.80;;
19358;SDS011;9815;52.334;20.890;2022-10-16T11:12:58;13.30;;;7.83;;
19358;SDS011;9815;52.334;20.890;2022-10-16T11:15:34;12.13;;;7.83;;
19358;SDS011;9815;52.334;20.890;2022-10-16T11:18:07;14.40;;;7.97;;
19358;SDS011;9815;52.334;20.890;2022-10-16T11:20:42;14.77;;;7.90;;
19358;SDS011;9815;52.334;20.890;2022-10-16T11:23:16;12.50;;;7.80;;
19358;SDS011;9815;52.334;20.890;2022-10-16T11:25:51;11.17;;;7.33;;
19358;SDS011;9815;52.334;20.890;2022-10-16T11:28:23;12.60;;;7.73;;
19358;SDS011;9815;52.334;20.890;2022-10-16T11:30:57;14.87;;;7.13;;
19358;SDS011;9815;52.334;20.890;2022-10-16T11:33:32;12.63;;;7.40;;
19358;SDS011;9815;52.334;20.890;2022-10-16T11:36:08;13.27;;;7.70;;
19358;SDS011;9815;52.334;20.890;2022-10-16T11:38:46;12.30;;;7.60;;
19358;SDS011;9815;52.334;20.890;2022-10-16T11:41:22;15.10;;;7.47;;
19358;SDS011;9815;52.334;20.890;2022-10-16T11:44:08;14.57;;;7.43;;
19358;SDS011;9815;52.334;20.890;2022-10-16T11:46:48;11.67;;;7.47;;
19358;SDS011;9815;52.334;20.890;2022-10-16T11:49:45;11.07;;;7.07;;
19358;SDS011;9815;52.334;20.890;2022-10-16T11:52:17;14.63;;;7.53;;
19358;SDS011;9815;52.334;20.890;2022-10-16T11:54:54;15.10;;;7.53;;
19358;SDS011;9815;52.334;20.890;2022-10-16T11:57:27;11.57;;;7.43;;
19358;SDS011;9815;52.334;20.890;2022-10-16T11:59:59;13.60;;;7.23;;
19358;SDS011;9815;52.334;20.890;2022-10-16T12:02:44;11.47;;;7.30;;
19358;SDS011;9815;52.334;20.890;2022-10-16T12:05:23;11.93;;;7.03;;
19358;SDS011;9815;52.334;20.890;2022-10-16T12:07:59;12.13;;;7.57;;
19358;SDS011;9815;52.334;20.890;2022-10-16T12:10:35;13.77;;;7.33;;
19358;SDS011;9815;52.334;20.890;2022-10-16T12:13:28;14.03;;;7.07;;
19358;SDS011;9815;52.334;20.890;2022-10-16T12:18:48;14.07;;;7.30;;
19358;SDS011;9815;52.334;20.890;2022-10-16T12:21:16;12.60;;;7.87;;
19358;SDS011;9815;52.334;20.890;2022-10-16T12:23:58;12.50;;;7.43;;
19358;SDS011;9815;52.334;20.890;2022-10-16T12:26:29;11.47;;;7.30;;
19358;SDS011;9815;52.334;20.890;2022-10-16T12:29:10;12.03;;;6.90;;
19358;SDS011;9815;52.334;20.890;2022-10-16T12:31:43;11.02;;;7.35;;
19358;SDS011;9815;52.334;20.890;2022-10-16T12:34:25;11.90;;;7.30;;
19358;SDS011;9815;52.334;20.890;2022-10-16T12:36:55;11.53;;;7.00;;
19358;SDS011;9815;52.334;20.890;2022-10-16T12:39:34;12.48;;;7.10;;
19358;SDS011;9815;52.334;20.890;2022-10-16T12:42:17;13.77;;;7.30;;
19358;SDS011;9815;52.334;20.890;2022-10-16T12:44:49;9.97;;;6.50;;
19358;SDS011;9815;52.334;20.890;2022-10-16T12:47:19;12.03;;;6.80;;
19358;SDS011;9815;52.334;20.890;2022-10-16T12:49:49;10.48;;;6.70;;
19358;SDS011;9815;52.334;20.890;2022-10-16T12:52:27;12.97;;;7.10;;
19358;SDS011;9815;52.334;20.890;2022-10-16T12:55:03;12.52;;;6.93;;
19358;SDS011;9815;52.334;20.890;2022-10-16T12:57:37;11.93;;;6.90;;
19358;SDS011;9815;52.334;20.890;2022-10-16T13:00:17;12.63;;;7.27;;
19358;SDS011;9815;52.334;20.890;2022-10-16T13:02:58;12.97;;;7.07;;
19358;SDS011;9815;52.334;20.890;2022-10-16T13:05:49;11.67;;;6.93;;
19358;SDS011;9815;52.334;20.890;2022-10-16T13:08:30;11.17;;;7.23;;
19358;SDS011;9815;52.334;20.890;2022-10-16T13:11:10;14.33;;;6.80;;
19358;SDS011;9815;52.334;20.890;2022-10-16T13:13:53;11.13;;;6.73;;
19358;SDS011;9815;52.334;20.890;2022-10-16T13:16:35;12.27;;;6.93;;
19358;SDS011;9815;52.334;20.890;2022-10-16T13:19:15;11.93;;;7.50;;
19358;SDS011;9815;52.334;20.890;2022-10-16T13:21:50;14.80;;;7.07;;
19358;SDS011;9815;52.334;20.890;2022-10-16T13:24:26;14.00;;;7.27;;
19358;SDS011;9815;52.334;20.890;2022-10-16T13:27:19;16.80;;;7.10;;
19358;SDS011;9815;52.334;20.890;2022-10-16T13:30:01;14.37;;;7.73;;
19358;SDS011;9815;52.334;20.890;2022-10-16T13:32:38;11.50;;;7.20;;
19358;SDS011;9815;52.334;20.890;2022-10-16T13:35:18;11.63;;;7.60;;
19358;SDS011;9815;52.334;20.890;2022-10-16T13:37:48;13.60;;;8.20;;
19358;SDS011;9815;52.334;20.890;2022-10-16T13:40:20;11.90;;;7.23;;
19358;SDS011;9815;52.334;20.890;2022-10-16T13:42:50;13.17;;;7.80;;
19358;SDS011;9815;52.334;20.890;2022-10-16T13:45:23;13.10;;;8.23;;
19358;SDS011;9815;52.334;20.890;2022-10-16T13:48:01;14.27;;;8.00;;
19358;SDS011;9815;52.334;20.890;2022-10-16T13:50:30;11.90;;;7.20;;
19358;SDS011;9815;52.334;20.890;2022-10-16T13:53:04;13.30;;;7.70;;
19358;SDS011;9815;52.334;20.890;2022-10-16T13:55:33;14.90;;;8.33;;
19358;SDS011;9815;52.334;20.890;2022-10-16T13:58:04;18.70;;;7.90;;
19358;SDS011;9815;52.334;20.890;2022-10-16T14:00:35;12.07;;;8.10;;
19358;SDS011;9815;52.334;20.890;2022-10-16T14:03:12;16.40;;;8.20;;
19358;SDS011;9815;52.334;20.890;2022-10-16T14:05:42;16.53;;;8.40;;
19358;SDS011;9815;52.334;20.890;2022-10-16T14:08:14;14.70;;;8.93;;
19358;SDS011;9815;52.334;20.890;2022-10-16T14:10:42;13.03;;;8.13;;
19358;SDS011;9815;52.334;20.890;2022-10-16T14:13:16;17.20;;;8.23;;
19358;SDS011;9815;52.334;20.890;2022-10-16T14:15:49;14.13;;;8.17;;
19358;SDS011;9815;52.334;20.890;2022-10-16T14:18:19;14.00;;;8.63;;
19358;SDS011;9815;52.334;20.890;2022-10-16T14:20:50;15.53;;;8.73;;
19358;SDS011;9815;52.334;20.890;2022-10-16T14:23:19;13.93;;;8.73;;
19358;SDS011;9815;52.334;20.890;2022-10-16T14:25:50;17.93;;;8.80;;
19358;SDS011;9815;52.334;20.890;2022-10-16T14:28:18;14.97;;;8.77;;
19358;SDS011;9815;52.334;20.890;2022-10-16T14:30:53;14.53;;;8.87;;
19358;SDS011;9815;52.334;20.890;2022-10-16T14:33:23;14.30;;;8.43;;
19358;SDS011;9815;52.334;20.890;2022-10-16T14:36:00;14.33;;;8.17;;
19358;SDS011;9815;52.334;20.890;2022-10-16T14:38:30;12.53;;;8.43;;
19358;SDS011;9815;52.334;20.890;2022-10-16T14:40:59;18.77;;;8.27;;
19358;SDS011;9815;52.334;20.890;2022-10-16T14:43:30;17.13;;;9.77;;
19358;SDS011;9815;52.334;20.890;2022-10-16T14:46:11;35.50;;;18.07;;
19358;SDS011;9815;52.334;20.890;2022-10-16T14:48:41;19.33;;;12.43;;
19358;SDS011;9815;52.334;20.890;2022-10-16T14:51:11;21.77;;;12.80;;
19358;SDS011;9815;52.334;20.890;2022-10-16T14:53:40;17.13;;;8.90;;
19358;SDS011;9815;52.334;20.890;2022-10-16T14:56:09;13.60;;;8.07;;
19358;SDS011;9815;52.334;20.890;2022-10-16T14:58:44;16.40;;;9.27;;
19358;SDS011;9815;52.334;20.890;2022-10-16T15:01:13;15.40;;;9.43;;
19358;SDS011;9815;52.334;20.890;2022-10-16T15:03:41;17.60;;;10.97;;